createdAt,value
2023-05-20T00:01:04.323Z,12.70
2023-05-20T00:03:33.361Z,12.70
2023-05-20T00:06:01.019Z,12.73
2023-05-20T00:08:28.608Z,12.72
2023-05-20T00:10:56.273Z,12.71
2023-05-20T00:13:24.631Z,12.69
2023-05-20T00:15:54.160Z,12.68
2023-05-20T00:18:21.875Z,12.67
2023-05-20T00:20:50.879Z,12.66
2023-05-20T00:23:18.596Z,12.64
2023-05-20T00:25:46.213Z,12.59
2023-05-20T00:28:13.928Z,12.57
2023-05-20T00:30:42.120Z,12.53
2023-05-20T00:33:09.804Z,12.52
2023-05-20T00:35:37.409Z,12.47
2023-05-20T00:38:06.524Z,12.44
2023-05-20T00:40:34.140Z,12.39
2023-05-20T00:43:01.782Z,12.35
2023-05-20T00:45:30.012Z,12.33
2023-05-20T00:48:01.521Z,12.30
2023-05-20T00:50:29.736Z,12.26
2023-05-20T00:52:58.665Z,12.22
2023-05-20T00:55:27.729Z,12.20
2023-05-20T00:57:55.989Z,12.16
2023-05-20T01:00:24.314Z,12.13
2023-05-20T01:02:52.187Z,12.11
2023-05-20T01:05:19.947Z,12.08
2023-05-20T01:07:47.728Z,12.04
2023-05-20T01:10:15.337Z,12.03
2023-05-20T01:12:49.287Z,12.02
2023-05-20T01:15:17.794Z,12.00
2023-05-20T01:17:47.967Z,12.00
2023-05-20T01:20:16.556Z,11.98
2023-05-20T01:22:54.627Z,11.93
2023-05-20T01:25:22.828Z,11.89
2023-05-20T01:27:52.633Z,11.89
2023-05-20T01:30:21.091Z,11.87
2023-05-20T01:32:51.459Z,11.85
2023-05-20T01:35:20.638Z,11.88
2023-05-20T01:37:51.470Z,11.87
2023-05-20T01:40:19.865Z,11.88
2023-05-20T01:42:52.807Z,11.89
2023-05-20T01:45:20.807Z,11.91
2023-05-20T01:47:48.653Z,11.91
2023-05-20T01:50:17.361Z,11.94
2023-05-20T01:52:45.032Z,11.91
2023-05-20T01:55:13.983Z,11.91
2023-05-20T01:57:41.709Z,11.85
2023-05-20T02:00:10.616Z,11.87
2023-05-20T02:02:45.987Z,11.83
2023-05-20T02:05:14.464Z,11.87
2023-05-20T02:07:44.010Z,11.86
2023-05-20T02:10:12.154Z,11.88
2023-05-20T02:12:41.181Z,11.86
2023-05-20T02:15:09.852Z,11.84
2023-05-20T02:17:37.885Z,11.84
2023-05-20T02:20:09.170Z,11.84
2023-05-20T02:22:36.813Z,11.88
2023-05-20T02:25:05.016Z,11.90
2023-05-20T02:27:32.682Z,11.92
2023-05-20T02:30:02.187Z,11.96
2023-05-20T02:32:29.927Z,11.98
2023-05-20T02:34:57.613Z,12.01
2023-05-20T02:37:25.214Z,12.00
2023-05-20T02:39:52.875Z,12.01
2023-05-20T02:42:20.602Z,12.02
2023-05-20T02:44:48.306Z,12.03
2023-05-20T02:47:17.294Z,12.01
2023-05-20T02:49:45.044Z,12.04
2023-05-20T02:52:12.701Z,12.02
2023-05-20T02:54:41.357Z,12.03
2023-05-20T02:57:09.269Z,12.00
2023-05-20T02:59:37.260Z,12.00
2023-05-20T03:02:05.076Z,12.01
2023-05-20T03:04:34.258Z,12.01
2023-05-20T03:07:01.868Z,12.00
2023-05-20T03:09:30.454Z,11.98
2023-05-20T03:11:58.072Z,11.96
2023-05-20T03:14:25.720Z,11.95
2023-05-20T03:16:55.316Z,11.93
2023-05-20T03:19:23.687Z,11.92
2023-05-20T03:21:52.798Z,11.89
2023-05-20T03:24:20.522Z,11.93
2023-05-20T03:26:48.684Z,11.91
2023-05-20T03:29:17.849Z,11.92
2023-05-20T03:31:46.316Z,11.92
2023-05-20T03:34:14.101Z,11.91
2023-05-20T03:36:42.342Z,11.93
2023-05-20T03:39:11.500Z,11.92
2023-05-20T03:41:39.161Z,11.91
2023-05-20T03:44:06.853Z,11.91
2023-05-20T03:46:34.632Z,11.92
2023-05-20T03:49:04.034Z,11.92
2023-05-20T03:51:32.119Z,11.89
2023-05-20T03:54:06.316Z,11.87
2023-05-20T03:56:36.344Z,11.89
2023-05-20T03:59:04.230Z,11.89
2023-05-20T04:01:32.074Z,11.88
2023-05-20T04:03:59.781Z,11.89
2023-05-20T04:06:27.540Z,11.90
2023-05-20T04:08:57.095Z,11.90
2023-05-20T04:11:24.774Z,11.92
2023-05-20T04:13:54.761Z,11.93
2023-05-20T04:16:22.664Z,11.95
2023-05-20T04:18:50.782Z,11.94
2023-05-20T04:21:18.898Z,11.94
2023-05-20T04:23:47.023Z,11.98
2023-05-20T04:26:14.668Z,12.05
2023-05-20T04:28:42.834Z,12.13
2023-05-20T04:31:12.514Z,12.18
2023-05-20T04:33:40.462Z,12.22
2023-05-20T04:36:16.350Z,12.25
2023-05-20T04:38:44.574Z,12.28
2023-05-20T04:41:12.375Z,12.31
2023-05-20T04:43:40.214Z,12.33
2023-05-20T04:46:08.792Z,12.36
2023-05-20T04:48:38.386Z,12.47
2023-05-20T04:51:05.963Z,12.53
2023-05-20T04:53:35.963Z,12.58
2023-05-20T04:56:03.945Z,12.62
2023-05-20T04:58:31.745Z,12.64
2023-05-20T05:01:01.457Z,12.68
2023-05-20T05:03:29.231Z,12.70
2023-05-20T05:05:59.839Z,12.78
2023-05-20T05:08:27.697Z,12.86
2023-05-20T05:10:55.647Z,12.89
2023-05-20T05:13:23.430Z,12.95
2023-05-20T05:15:59.482Z,12.99
2023-05-20T05:18:28.636Z,13.03
2023-05-20T05:21:05.479Z,13.06
2023-05-20T05:23:35.343Z,13.09
2023-05-20T05:26:02.960Z,13.14
2023-05-20T05:28:30.633Z,13.19
2023-05-20T05:30:59.078Z,13.33
2023-05-20T05:33:27.366Z,13.47
2023-05-20T05:35:58.806Z,13.62
2023-05-20T05:38:27.776Z,13.78
2023-05-20T05:40:55.403Z,13.93
2023-05-20T05:43:23.776Z,13.99
2023-05-20T05:45:52.500Z,14.06
2023-05-20T05:48:20.653Z,14.16
2023-05-20T05:50:48.777Z,14.18
2023-05-20T05:53:18.057Z,14.21
2023-05-20T05:55:50.355Z,14.21
2023-05-20T05:58:18.806Z,14.31
2023-05-20T06:00:46.702Z,14.47
2023-05-20T06:03:15.148Z,14.58
2023-05-20T06:05:46.328Z,14.74
2023-05-20T06:08:14.072Z,14.81
2023-05-20T06:10:41.838Z,14.93
2023-05-20T06:13:10.901Z,14.95
2023-05-20T06:15:38.495Z,15.02
2023-05-20T06:18:06.251Z,15.13
2023-05-20T06:20:34.497Z,15.24
2023-05-20T06:23:02.747Z,15.38
2023-05-20T06:25:39.057Z,15.53
2023-05-20T06:28:08.234Z,15.71
2023-05-20T06:30:37.527Z,15.88
2023-05-20T06:33:05.406Z,16.08
2023-05-20T06:35:34.776Z,16.12
2023-05-20T06:38:03.810Z,16.17
2023-05-20T06:40:31.704Z,16.25
2023-05-20T06:42:59.408Z,16.40
2023-05-20T06:45:52.336Z,16.57
2023-05-20T06:48:28.375Z,16.72
2023-05-20T06:50:56.885Z,16.90
2023-05-20T06:53:24.444Z,16.97
2023-05-20T06:55:55.616Z,17.05
2023-05-20T06:58:24.509Z,16.91
2023-05-20T07:00:56.968Z,16.93
2023-05-20T07:03:25.798Z,17.02
2023-05-20T07:05:54.122Z,17.05
2023-05-20T07:08:22.344Z,17.19
2023-05-20T07:10:50.152Z,17.20
2023-05-20T07:13:23.840Z,17.18
2023-05-20T07:15:52.281Z,17.17
2023-05-20T07:18:21.591Z,17.20
2023-05-20T07:20:53.228Z,17.21
2023-05-20T07:23:41.088Z,17.27
2023-05-20T07:26:08.795Z,17.28
2023-05-20T07:28:36.598Z,17.29
2023-05-20T07:31:04.651Z,17.36
2023-05-20T07:33:36.086Z,17.59
2023-05-20T07:36:04.622Z,17.77
2023-05-20T07:38:33.241Z,17.93
2023-05-20T07:41:04.339Z,18.08
2023-05-20T07:43:32.744Z,18.31
2023-05-20T07:46:01.076Z,18.44
2023-05-20T07:48:28.713Z,18.52
2023-05-20T07:50:59.210Z,18.67
2023-05-20T07:53:27.993Z,18.75
2023-05-20T07:55:56.260Z,18.80
2023-05-20T07:58:24.964Z,18.80
2023-05-20T08:00:52.672Z,18.91
2023-05-20T08:03:22.195Z,18.81
2023-05-20T08:05:58.130Z,18.98
2023-05-20T08:08:26.824Z,19.11
2023-05-20T08:10:59.542Z,19.23
2023-05-20T08:13:27.962Z,19.24
2023-05-20T08:15:56.034Z,19.21
2023-05-20T08:18:25.271Z,19.42
2023-05-20T08:20:53.014Z,19.23
2023-05-20T08:23:22.354Z,19.38
2023-05-20T08:25:50.682Z,19.41
2023-05-20T08:28:21.975Z,19.56
2023-05-20T08:30:49.739Z,19.59
2023-05-20T08:33:19.358Z,19.76
2023-05-20T08:35:47.002Z,19.86
2023-05-20T08:38:15.134Z,19.92
2023-05-20T08:40:44.243Z,19.75
2023-05-20T08:43:12.029Z,19.96
2023-05-20T08:45:40.031Z,20.15
2023-05-20T08:48:12.692Z,20.22
2023-05-20T08:50:40.628Z,20.29
2023-05-20T08:53:08.699Z,20.40
2023-05-20T08:55:49.663Z,20.38
2023-05-20T08:58:19.337Z,20.46
2023-05-20T09:00:47.041Z,20.47
2023-05-20T09:03:14.675Z,20.56
2023-05-20T09:05:42.352Z,20.67
2023-05-20T09:08:11.786Z,20.61
2023-05-20T09:10:40.316Z,20.59
2023-05-20T09:13:09.526Z,20.69
2023-05-20T09:15:39.024Z,20.63
2023-05-20T09:18:08.838Z,20.80
2023-05-20T09:20:38.085Z,20.85
2023-05-20T09:23:07.517Z,20.83
2023-05-20T09:25:37.420Z,20.97
2023-05-20T09:28:05.931Z,20.97
2023-05-20T09:30:34.257Z,21.20
2023-05-20T09:33:05.962Z,21.24
2023-05-20T09:35:36.948Z,21.38
2023-05-20T09:38:06.947Z,21.45
2023-05-20T09:40:37.571Z,21.55
2023-05-20T09:43:07.123Z,21.41
2023-05-20T09:45:35.563Z,21.36
2023-05-20T09:48:06.042Z,21.46
2023-05-20T09:50:33.882Z,21.71
2023-05-20T09:53:04.899Z,21.91
2023-05-20T09:55:33.013Z,21.87
2023-05-20T09:58:03.901Z,22.07
2023-05-20T10:00:31.851Z,22.12
2023-05-20T10:03:01.026Z,22.01
2023-05-20T10:05:33.328Z,22.17
2023-05-20T10:08:29.177Z,22.30
2023-05-20T10:11:05.861Z,22.22
2023-05-20T10:14:00.995Z,22.05
2023-05-20T10:16:35.631Z,22.43
2023-05-20T10:19:18.191Z,22.57
2023-05-20T10:21:57.966Z,22.93
2023-05-20T10:24:31.823Z,23.01
2023-05-20T10:27:00.170Z,23.07
2023-05-20T10:29:27.879Z,23.24
2023-05-20T10:31:56.127Z,23.16
2023-05-20T10:34:24.399Z,23.38
2023-05-20T10:37:02.525Z,23.30
2023-05-20T10:39:32.815Z,23.58
2023-05-20T10:42:07.298Z,23.71
2023-05-20T10:44:44.805Z,23.58
2023-05-20T10:49:46.307Z,23.77
2023-05-20T10:52:16.082Z,23.49
2023-05-20T10:54:51.508Z,23.76
2023-05-20T10:57:19.474Z,24.08
2023-05-20T10:59:47.701Z,24.26
2023-05-20T11:02:17.278Z,24.39
2023-05-20T11:04:45.754Z,24.65
2023-05-20T11:07:25.259Z,25.00
2023-05-20T11:09:52.981Z,24.91
2023-05-20T11:12:22.701Z,25.02
2023-05-20T11:14:51.450Z,24.92
2023-05-20T11:17:20.318Z,24.99
2023-05-20T11:19:48.827Z,24.76
2023-05-20T11:22:17.914Z,24.77
2023-05-20T11:24:45.737Z,24.94
2023-05-20T11:27:13.422Z,24.98
2023-05-20T11:29:41.445Z,25.31
2023-05-20T11:32:09.214Z,25.43
2023-05-20T11:34:38.151Z,25.46
2023-05-20T11:37:08.571Z,25.42
2023-05-20T11:39:38.409Z,25.36
2023-05-20T11:42:06.902Z,25.35
2023-05-20T11:44:34.887Z,25.43
2023-05-20T11:47:04.600Z,25.33
2023-05-20T11:49:40.905Z,25.30
2023-05-20T11:52:11.049Z,25.20
2023-05-20T11:54:40.147Z,25.23
2023-05-20T11:57:08.433Z,25.31
2023-05-20T11:59:36.544Z,25.43
2023-05-20T12:02:04.214Z,25.25
2023-05-20T12:04:32.009Z,25.02
2023-05-20T12:06:59.670Z,25.24
2023-05-20T12:09:27.474Z,25.62
2023-05-20T12:11:57.093Z,25.76
2023-05-20T12:14:24.785Z,25.38
2023-05-20T12:16:53.698Z,25.05
2023-05-20T12:19:21.456Z,25.02
2023-05-20T12:21:49.239Z,25.03
2023-05-20T12:24:16.830Z,24.91
2023-05-20T12:26:44.481Z,24.80
2023-05-20T12:29:13.599Z,24.94
2023-05-20T12:31:41.366Z,24.81
2023-05-20T12:34:09.002Z,24.88
2023-05-20T12:36:37.735Z,24.75
2023-05-20T12:39:06.068Z,24.77
2023-05-20T12:41:33.759Z,24.71
2023-05-20T12:44:01.476Z,24.81
2023-05-20T12:46:30.743Z,24.73
2023-05-20T12:48:58.705Z,24.77
2023-05-20T12:51:26.462Z,24.70
2023-05-20T12:53:54.160Z,24.89
2023-05-20T12:56:22.188Z,25.54
2023-05-20T12:58:49.867Z,25.90
2023-05-20T13:01:17.543Z,26.14
2023-05-20T13:03:47.896Z,26.05
2023-05-20T13:06:15.586Z,25.74
2023-05-20T13:08:43.352Z,25.61
2023-05-20T13:11:10.960Z,25.45
2023-05-20T13:13:38.576Z,25.53
2023-05-20T13:16:06.554Z,25.99
2023-05-20T13:18:34.112Z,26.87
2023-05-20T13:21:03.020Z,27.74
2023-05-20T13:23:30.587Z,27.52
2023-05-20T13:25:58.315Z,27.67
2023-05-20T13:28:25.955Z,27.80
2023-05-20T13:30:53.583Z,28.05
2023-05-20T13:33:23.012Z,28.20
2023-05-20T13:35:50.754Z,28.17
2023-05-20T13:38:19.710Z,28.49
2023-05-20T13:40:47.268Z,28.33
2023-05-20T13:43:14.836Z,28.17
2023-05-20T13:45:43.529Z,28.42
2023-05-20T13:48:11.207Z,28.45
2023-05-20T13:50:38.943Z,28.29
2023-05-20T13:53:06.726Z,28.63
2023-05-20T13:55:36.386Z,29.01
2023-05-20T13:58:05.461Z,29.00
2023-05-20T14:00:33.206Z,29.27
2023-05-20T14:03:01.038Z,29.30
2023-05-20T14:05:28.782Z,29.18
2023-05-20T14:07:56.420Z,28.69
2023-05-20T14:10:24.138Z,28.25
2023-05-20T14:12:54.160Z,28.37
2023-05-20T14:15:21.868Z,28.63
2023-05-20T14:17:49.593Z,28.85
2023-05-20T14:20:17.533Z,29.21
2023-05-20T14:22:45.148Z,29.81
2023-05-20T14:25:12.797Z,30.01
2023-05-20T14:27:40.490Z,29.65
2023-05-20T14:30:10.853Z,30.03
2023-05-20T14:32:38.454Z,29.70
2023-05-20T14:35:07.000Z,29.66
2023-05-20T14:37:34.576Z,29.46
2023-05-20T14:40:02.767Z,29.39
2023-05-20T14:42:30.377Z,29.16
2023-05-20T14:44:57.999Z,29.06
2023-05-20T14:47:27.062Z,30.29
2023-05-20T14:49:54.766Z,33.00
2023-05-20T14:52:22.490Z,35.36
2023-05-20T14:54:50.148Z,33.94
2023-05-20T14:57:17.902Z,32.38
2023-05-20T14:59:45.853Z,31.07
2023-05-20T15:02:15.529Z,31.04
2023-05-20T15:04:46.644Z,31.74
2023-05-20T15:07:14.639Z,31.85
2023-05-20T15:09:42.528Z,31.39
2023-05-20T15:12:10.664Z,30.47
2023-05-20T15:14:38.420Z,30.03
2023-05-20T15:17:06.158Z,29.64
2023-05-20T15:19:33.961Z,29.98
2023-05-20T15:22:03.264Z,30.84
2023-05-20T15:24:31.070Z,31.60
2023-05-20T15:26:58.717Z,31.42
2023-05-20T15:29:26.407Z,32.53
2023-05-20T15:31:54.053Z,32.68
2023-05-20T15:34:21.661Z,31.47
2023-05-20T15:36:49.285Z,30.69
2023-05-20T15:39:18.346Z,29.63
2023-05-20T15:41:47.921Z,28.58
2023-05-20T15:44:15.615Z,27.63
2023-05-20T15:46:44.700Z,27.26
2023-05-20T15:49:12.802Z,27.03
2023-05-20T15:51:41.087Z,27.20
2023-05-20T15:54:12.160Z,27.29
2023-05-20T15:56:41.212Z,27.21
2023-05-20T15:59:08.837Z,27.22
2023-05-20T16:01:37.977Z,27.30
2023-05-20T16:04:06.841Z,27.21
2023-05-20T16:06:35.661Z,27.01
2023-05-20T16:09:03.750Z,27.04
2023-05-20T16:11:32.681Z,27.03
2023-05-20T16:14:01.661Z,27.27
2023-05-20T16:16:29.281Z,27.72
2023-05-20T16:18:58.793Z,28.56
2023-05-20T16:21:26.668Z,28.81
2023-05-20T16:23:54.241Z,28.80
2023-05-20T16:26:22.564Z,28.54
2023-05-20T16:28:50.269Z,28.31
2023-05-20T16:31:19.498Z,28.53
2023-05-20T16:33:47.241Z,29.26
2023-05-20T16:36:14.855Z,29.84
2023-05-20T16:38:42.396Z,29.29
2023-05-20T16:41:10.041Z,29.38
2023-05-20T16:43:37.758Z,29.60
2023-05-20T16:46:05.633Z,29.44
2023-05-20T16:48:34.933Z,28.81
2023-05-20T16:51:02.672Z,28.59
2023-05-20T16:53:30.275Z,28.10
2023-05-20T16:55:57.900Z,27.48
2023-05-20T16:58:25.592Z,27.11
2023-05-20T17:00:53.605Z,26.63
2023-05-20T17:03:21.424Z,26.20
2023-05-20T17:05:50.441Z,25.91
2023-05-20T17:08:18.177Z,25.64
2023-05-20T17:10:45.807Z,25.47
2023-05-20T17:13:13.374Z,25.22
2023-05-20T17:15:40.988Z,25.01
2023-05-20T17:18:08.637Z,24.91
2023-05-20T17:20:36.355Z,24.78
2023-05-20T17:23:05.416Z,24.62
2023-05-20T17:25:33.051Z,24.43
2023-05-20T17:28:01.047Z,24.34
2023-05-20T17:30:28.698Z,24.17
2023-05-20T17:32:57.236Z,24.08
2023-05-20T17:35:25.571Z,24.00
2023-05-20T17:37:53.657Z,23.81
2023-05-20T17:40:22.601Z,23.78
2023-05-20T17:42:50.472Z,23.66
2023-05-20T17:45:18.126Z,23.67
2023-05-20T17:47:45.918Z,23.61
2023-05-20T17:50:14.627Z,23.57
2023-05-20T17:52:42.211Z,23.50
2023-05-20T17:55:10.358Z,23.41
2023-05-20T17:57:39.366Z,23.26
2023-05-20T18:00:09.170Z,23.14
2023-05-20T18:02:38.403Z,23.07
2023-05-20T18:05:06.839Z,23.06
2023-05-20T18:07:36.004Z,23.01
2023-05-20T18:10:05.527Z,22.94
2023-05-20T18:12:33.106Z,22.86
2023-05-20T18:15:02.110Z,22.73
2023-05-20T18:17:29.813Z,22.63
2023-05-20T18:19:57.429Z,22.60
2023-05-20T18:22:25.962Z,22.49
2023-05-20T18:24:53.628Z,22.44
2023-05-20T18:27:21.336Z,22.34
2023-05-20T18:29:50.009Z,22.19
2023-05-20T18:32:19.045Z,22.05
2023-05-20T18:34:46.661Z,21.95
2023-05-20T18:37:14.220Z,21.91
2023-05-20T18:39:41.860Z,21.78
2023-05-20T18:42:09.683Z,21.67
2023-05-20T18:44:37.411Z,21.55
2023-05-20T18:47:05.358Z,21.50
2023-05-20T18:49:34.278Z,21.43
2023-05-20T18:52:01.922Z,21.25
2023-05-20T18:54:29.630Z,21.23
2023-05-20T18:56:57.312Z,21.13
2023-05-20T18:59:25.222Z,21.10
2023-05-20T19:01:52.998Z,20.95
2023-05-20T19:04:20.683Z,20.90
2023-05-20T19:06:49.884Z,20.81
2023-05-20T19:09:17.530Z,20.77
2023-05-20T19:11:45.089Z,20.71
2023-05-20T19:14:12.760Z,20.61
2023-05-20T19:16:40.673Z,20.48
2023-05-20T19:19:08.369Z,20.40
2023-05-20T19:21:36.494Z,20.38
2023-05-20T19:24:06.558Z,20.29
2023-05-20T19:26:34.394Z,20.27
2023-05-20T19:29:02.015Z,20.20
2023-05-20T19:31:29.715Z,20.19
2023-05-20T19:33:57.472Z,20.11
2023-05-20T19:36:25.155Z,20.06
2023-05-20T19:38:52.799Z,20.02
2023-05-20T19:41:22.537Z,20.02
2023-05-20T19:43:50.139Z,20.00
2023-05-20T19:46:17.860Z,19.96
2023-05-20T19:48:45.626Z,19.92
2023-05-20T19:51:13.289Z,19.90
2023-05-20T19:53:40.913Z,19.90
2023-05-20T19:56:08.803Z,19.85
2023-05-20T19:58:37.829Z,19.82
2023-05-20T20:01:06.583Z,19.79
2023-05-20T20:03:34.293Z,19.74
2023-05-20T20:06:02.277Z,19.69
2023-05-20T20:08:30.036Z,19.64
2023-05-20T20:10:57.665Z,19.63
2023-05-20T20:13:25.617Z,19.61
2023-05-20T20:15:54.599Z,19.60
2023-05-20T20:18:22.193Z,19.56
2023-05-20T20:20:49.965Z,19.50
2023-05-20T20:23:17.817Z,19.45
2023-05-20T20:25:47.911Z,19.41
2023-05-20T20:28:15.787Z,19.36
2023-05-20T20:30:43.410Z,19.29
2023-05-20T20:33:13.205Z,19.24
2023-05-20T20:35:41.088Z,19.20
2023-05-20T20:38:09.857Z,19.12
2023-05-20T20:40:41.473Z,19.02
2023-05-20T20:43:10.872Z,18.93
2023-05-20T20:45:38.563Z,18.87
2023-05-20T20:48:07.542Z,18.81
2023-05-20T20:50:36.916Z,18.72
2023-05-20T20:53:04.513Z,18.60
2023-05-20T20:55:32.110Z,18.56
2023-05-20T20:58:02.713Z,18.50
2023-05-20T21:00:30.489Z,18.43
2023-05-20T21:02:58.161Z,18.36
2023-05-20T21:05:26.660Z,18.29
2023-05-20T21:07:58.382Z,18.24
2023-05-20T21:10:29.038Z,18.19
2023-05-20T21:12:57.042Z,18.15
2023-05-20T21:15:25.173Z,18.13
2023-05-20T21:17:53.305Z,18.13
2023-05-20T21:20:21.871Z,18.13
2023-05-20T21:22:49.645Z,18.08
2023-05-20T21:25:18.859Z,17.97
2023-05-20T21:27:46.521Z,17.91
2023-05-20T21:30:15.710Z,17.86
2023-05-20T21:32:43.331Z,17.81
2023-05-20T21:35:11.078Z,17.77
2023-05-20T21:37:38.725Z,17.76
2023-05-20T21:40:07.893Z,17.69
2023-05-20T21:42:36.825Z,17.62
2023-05-20T21:45:05.141Z,17.57
2023-05-20T21:47:32.731Z,17.55
2023-05-20T21:50:00.493Z,17.50
2023-05-20T21:52:28.128Z,17.43
2023-05-20T21:54:55.910Z,17.35
2023-05-20T21:57:23.511Z,17.32
2023-05-20T21:59:52.462Z,17.27
2023-05-20T22:02:20.141Z,17.26
2023-05-20T22:04:49.191Z,17.15
2023-05-20T22:07:16.888Z,17.16
2023-05-20T22:09:44.533Z,17.14
2023-05-20T22:12:15.507Z,17.11
2023-05-20T22:14:43.198Z,17.02
2023-05-20T22:17:12.644Z,16.99
2023-05-20T22:19:41.404Z,16.89
2023-05-20T22:22:09.008Z,16.87
2023-05-20T22:24:36.624Z,16.89
2023-05-20T22:27:04.892Z,16.86
2023-05-20T22:33:46.284Z,16.75
2023-05-20T22:36:13.863Z,16.69
2023-05-20T22:38:41.592Z,16.70
2023-05-20T22:41:09.316Z,16.67
2023-05-20T22:43:36.892Z,16.63
2023-05-20T22:46:04.512Z,16.58
2023-05-20T22:48:32.134Z,16.52
2023-05-20T22:51:03.724Z,16.50
2023-05-20T22:53:31.407Z,16.47
2023-05-20T22:55:59.738Z,16.38
2023-05-20T22:58:29.590Z,16.36
2023-05-20T23:00:59.507Z,16.30
2023-05-20T23:03:27.160Z,16.20
2023-05-20T23:05:54.756Z,16.25
2023-05-20T23:08:23.665Z,16.26
2023-05-20T23:10:51.530Z,16.26
2023-05-20T23:13:19.242Z,16.20
2023-05-20T23:15:47.897Z,16.15
2023-05-20T23:18:15.718Z,16.13
2023-05-20T23:20:43.377Z,16.14
2023-05-20T23:23:11.827Z,16.11
2023-05-20T23:25:42.379Z,16.08
2023-05-20T23:28:11.259Z,16.07
2023-05-20T23:30:38.817Z,16.07
2023-05-20T23:33:06.538Z,16.09
2023-05-20T23:35:34.397Z,16.09
2023-05-20T23:38:02.196Z,16.02
2023-05-20T23:40:29.726Z,15.97
2023-05-20T23:42:58.725Z,15.89
2023-05-20T23:45:26.309Z,15.84
2023-05-20T23:47:55.435Z,15.80
2023-05-20T23:50:23.220Z,15.79
2023-05-20T23:52:50.890Z,15.80
2023-05-20T23:55:19.243Z,15.78
2023-05-20T23:57:46.787Z,15.81
